Buoy 56564

sailwx.info

Track history (hours):
 
Tides and Currents Weather Stations Pressure Air Temp Water Temp Dewpoint Dewpoint Depression Visibility Wind Speed Wind Dir Waves Ship Positions

Drifting buoy 56564

Last reported at 2018-Apr-01 05:30 UTC. Time now 2018-Apr-26 21:12 UTC.
Position S 34°46' E 017°58'.
Warning: this ship's position is 25 days out of date.

Barometer 1014.5 mb

Date/timePositionNaut miles runAvg speedWind from/ knotsBaromVisibWave heightAir tempDewpointWater temp
2018-Apr-01 05:30S 34°46' E 017°58'0 0.0 1014.5
2018-Apr-01 04:30S 34°46' E 017°58'0 0.0 1014.7
2018-Mar-31 00:30S 34°46' E 017°58'3 0.9 1020.5
2018-Mar-30 20:30S 34°49' E 018°01'2 1.6 1020.8
2018-Mar-30 19:30S 34°49' E 018°03'2 1.0 1020.7
2018-Mar-30 17:30S 34°50' E 018°05'0 0.0 1019.9
2018-Mar-30 16:30S 34°50' E 018°05'2 1.9 1019.7
2018-Mar-30 15:30S 34°52' E 018°07'1 1.2 1019.2
2018-Mar-30 14:30S 34°52' E 018°08'8 7.6 1019.2
2018-Mar-30 13:30S 34°58' E 018°14'0 0.0 1018.8
2018-Mar-30 05:30S 34°58' E 018°14'9 8.7 1017.0
2018-Mar-30 04:30S 35°03' E 018°23'1 0.1 1016.3
2018-Mar-29 15:30S 35°04' E 018°23'3 2.8 1013.2
2018-Mar-29 14:30S 35°06' E 018°25'0 0.0 1012.7
2018-Mar-29 13:30S 35°06' E 018°25'9 1.7 1012.1
2018-Mar-29 08:30S 35°13' E 018°31'2 0.8 1011.7
2018-Mar-29 06:30S 35°14' E 018°33'2 2.0 1011.6
2018-Mar-29 05:30S 35°16' E 018°34'0 0.0 1010.8
2018-Mar-29 04:30S 35°16' E 018°34'1 0.8 1009.9
2018-Mar-29 03:30S 35°16' E 018°35'0 0.0 1009.7
2018-Mar-29 02:30S 35°16' E 018°35'9 0.9 1009.7
2018-Mar-28 16:30S 35°23' E 018°42'1 0.8 1008.4
2018-Mar-28 15:30S 35°24' E 018°41'5 2.4 1009.4
2018-Mar-28 13:30S 35°29' E 018°41'0 0.0 1008.7
2018-Mar-28 08:30S 35°29' E 018°41'1 0.8 1010.1
2018-Mar-28 07:30S 35°28' E 018°42'0 0.0 1009.6
2018-Mar-28 06:30S 35°28' E 018°42'1 1.1 1009.8
2018-Mar-28 05:30S 35°29' E 018°43'0 0.0 1009.4
2018-Mar-28 04:30S 35°29' E 018°43'1 0.6 1009.3
2018-Mar-28 03:30S 35°29' E 018°43'0 0.0 1009.2
2018-Mar-28 02:30S 35°29' E 018°43'1 0.8 1009.6
2018-Mar-28 01:30S 35°30' E 018°44'0 0.0 1009.7
2018-Mar-28 00:30S 35°30' E 018°44'4 1.3 1010.7
2018-Mar-27 21:30S 35°34' E 018°46'3 0.9 1011.4
2018-Mar-27 18:30S 35°36' E 018°47'1 1.2 1010.6
2018-Mar-27 17:30S 35°37' E 018°47'1 0.6 1010.2
2018-Mar-27 16:30S 35°38' E 018°47'1 1.1 1009.9
2018-Mar-27 15:30S 35°38' E 018°48'1 1.1 1009.7
2018-Mar-27 14:30S 35°39' E 018°49'0 0.0 1009.5
2018-Mar-27 13:30S 35°39' E 018°49'9 1.5 1009.6
2018-Mar-27 07:30S 35°44' E 018°58'3 2.5 1012.8
2018-Mar-27 06:30S 35°44' E 019°01'0 0.0 1012.8
2018-Mar-27 04:30S 35°44' E 019°01'2 2.3 1013.2
2018-Mar-27 03:30S 35°46' E 019°04'12 0.5 1013.4
2018-Mar-26 05:30S 35°56' E 019°10'1 0.6 1017.9
2018-Mar-26 04:30S 35°56' E 019°10'1 0.6 1017.3
2018-Mar-26 03:30S 35°57' E 019°10'1 1.2 1017.2
2018-Mar-26 02:30S 35°58' E 019°10'0 0.0 1017.1
2018-Mar-26 01:30S 35°58' E 019°10'1 0.6 1016.8
2018-Mar-25 23:30S 35°59' E 019°11'2 0.8 1017.7
2018-Mar-25 20:30S 36°02' E 019°10'2 1.5 1017.5
2018-Mar-25 19:30S 36°03' E 019°11'0 0.5 1017.2
2018-Mar-25 18:30S 36°03' E 019°12'2 2.0 1016.5
2018-Mar-25 17:30S 36°05' E 019°11'1 0.6 1015.9
2018-Mar-25 16:30S 36°05' E 019°11'0 0.0 1015.6
2018-Mar-25 15:30S 36°05' E 019°11'2 1.9 1015.0
2018-Mar-25 14:30S 36°07' E 019°10'0 0.0 1014.3
2018-Mar-25 13:30S 36°07' E 019°10'8 1.3 1013.8
2018-Mar-25 07:30S 36°15' E 019°08'0 0.0 1012.4
2018-Mar-25 03:30S 36°15' E 019°08'2 0.9 1010.9
2018-Mar-25 01:30S 36°17' E 019°08'2 0.9 1010.7
2018-Mar-24 23:30S 36°19' E 019°07'0 0.0 1011.7
2018-Mar-24 21:30S 36°19' E 019°07'1 1.3 1011.4
2018-Mar-24 20:30S 36°20' E 019°07'2 0.8 1011.4
2018-Mar-24 18:30S 36°21' E 019°05'1 0.4 1011.7
2018-Mar-24 16:30S 36°22' E 019°05'0 0.0 1010.7
2018-Mar-24 15:30S 36°22' E 019°05'2 2.4 1010.3
2018-Mar-24 14:30S 36°24' E 019°05'1 0.2 1010.0
2018-Mar-24 08:30S 36°25' E 019°05'1 0.1 1010.6
2018-Mar-24 04:30S 36°26' E 019°05'0 0.0 1009.8
2018-Mar-24 03:30S 36°26' E 019°05'4 1.2 1009.7
2018-Mar-24 00:30S 36°29' E 019°06'3 0.3 1009.2
2018-Mar-23 14:30S 36°32' E 019°04'1 0.6 1010.0
2018-Mar-23 12:30S 36°34' E 019°05'0 0.0 1010.6
2018-Mar-23 06:30S 36°34' E 019°05'0 0.0 1013.9
2018-Mar-23 05:30S 36°34' E 019°05'0 0.0 1014.5
2018-Mar-23 04:30S 36°34' E 019°05'1 0.2 1014.9
2018-Mar-23 01:30S 36°33' E 019°05'5 0.6 1017.1
2018-Mar-22 18:30S 36°31' E 019°10'0 0.0 1021.8
2018-Mar-22 17:30S 36°31' E 019°10'6 5.6 1021.6
2018-Mar-22 16:30S 36°32' E 019°16'0 0.1 1022.0
2018-Mar-22 08:30S 36°32' E 019°17'0 0.0 1026.5
2018-Mar-22 07:30S 36°32' E 019°17'2 1.6 1026.7
2018-Mar-22 06:30S 36°33' E 019°19'   1026.8
Track history (hours):
 
Tides and Currents Weather Stations Pressure Air Temp Water Temp Dewpoint Dewpoint Depression Visibility Wind Speed Wind Dir Waves Ship Positions

Drifting buoy 56564

Last reported at 2018-Apr-01 05:30 UTC. Time now 2018-Apr-26 21:12 UTC.
Position S 34°46' E 017°58'.
Warning: this ship's position is 25 days out of date.

Barometer 1014.5 mb

Date/timePositionNaut miles runAvg speedWind from/ knotsBaromVisibWave heightAir tempDewpointWater temp
2018-Apr-01 05:30S 34°46' E 017°58'0 0.0 1014.5
2018-Apr-01 04:30S 34°46' E 017°58'0 0.0 1014.7
2018-Mar-31 00:30S 34°46' E 017°58'3 0.9 1020.5
2018-Mar-30 20:30S 34°49' E 018°01'2 1.6 1020.8
2018-Mar-30 19:30S 34°49' E 018°03'2 1.0 1020.7
2018-Mar-30 17:30S 34°50' E 018°05'0 0.0 1019.9
2018-Mar-30 16:30S 34°50' E 018°05'2 1.9 1019.7
2018-Mar-30 15:30S 34°52' E 018°07'1 1.2 1019.2
2018-Mar-30 14:30S 34°52' E 018°08'8 7.6 1019.2
2018-Mar-30 13:30S 34°58' E 018°14'0 0.0 1018.8
2018-Mar-30 05:30S 34°58' E 018°14'9 8.7 1017.0
2018-Mar-30 04:30S 35°03' E 018°23'1 0.1 1016.3
2018-Mar-29 15:30S 35°04' E 018°23'3 2.8 1013.2
2018-Mar-29 14:30S 35°06' E 018°25'0 0.0 1012.7
2018-Mar-29 13:30S 35°06' E 018°25'9 1.7 1012.1
2018-Mar-29 08:30S 35°13' E 018°31'2 0.8 1011.7
2018-Mar-29 06:30S 35°14' E 018°33'2 2.0 1011.6
2018-Mar-29 05:30S 35°16' E 018°34'0 0.0 1010.8
2018-Mar-29 04:30S 35°16' E 018°34'1 0.8 1009.9
2018-Mar-29 03:30S 35°16' E 018°35'0 0.0 1009.7
2018-Mar-29 02:30S 35°16' E 018°35'9 0.9 1009.7
2018-Mar-28 16:30S 35°23' E 018°42'1 0.8 1008.4
2018-Mar-28 15:30S 35°24' E 018°41'5 2.4 1009.4
2018-Mar-28 13:30S 35°29' E 018°41'0 0.0 1008.7
2018-Mar-28 08:30S 35°29' E 018°41'1 0.8 1010.1
2018-Mar-28 07:30S 35°28' E 018°42'0 0.0 1009.6
2018-Mar-28 06:30S 35°28' E 018°42'1 1.1 1009.8
2018-Mar-28 05:30S 35°29' E 018°43'0 0.0 1009.4
2018-Mar-28 04:30S 35°29' E 018°43'1 0.6 1009.3
2018-Mar-28 03:30S 35°29' E 018°43'0 0.0 1009.2
2018-Mar-28 02:30S 35°29' E 018°43'1 0.8 1009.6
2018-Mar-28 01:30S 35°30' E 018°44'0 0.0 1009.7
2018-Mar-28 00:30S 35°30' E 018°44'4 1.3 1010.7
2018-Mar-27 21:30S 35°34' E 018°46'3 0.9 1011.4
2018-Mar-27 18:30S 35°36' E 018°47'1 1.2 1010.6
2018-Mar-27 17:30S 35°37' E 018°47'1 0.6 1010.2
2018-Mar-27 16:30S 35°38' E 018°47'1 1.1 1009.9
2018-Mar-27 15:30S 35°38' E 018°48'1 1.1 1009.7
2018-Mar-27 14:30S 35°39' E 018°49'0 0.0 1009.5
2018-Mar-27 13:30S 35°39' E 018°49'9 1.5 1009.6
2018-Mar-27 07:30S 35°44' E 018°58'3 2.5 1012.8
2018-Mar-27 06:30S 35°44' E 019°01'0 0.0 1012.8
2018-Mar-27 04:30S 35°44' E 019°01'2 2.3 1013.2
2018-Mar-27 03:30S 35°46' E 019°04'12 0.5 1013.4
2018-Mar-26 05:30S 35°56' E 019°10'1 0.6 1017.9
2018-Mar-26 04:30S 35°56' E 019°10'1 0.6 1017.3
2018-Mar-26 03:30S 35°57' E 019°10'1 1.2 1017.2
2018-Mar-26 02:30S 35°58' E 019°10'0 0.0 1017.1
2018-Mar-26 01:30S 35°58' E 019°10'1 0.6 1016.8
2018-Mar-25 23:30S 35°59' E 019°11'2 0.8 1017.7
2018-Mar-25 20:30S 36°02' E 019°10'2 1.5 1017.5
2018-Mar-25 19:30S 36°03' E 019°11'0 0.5 1017.2
2018-Mar-25 18:30S 36°03' E 019°12'2 2.0 1016.5
2018-Mar-25 17:30S 36°05' E 019°11'1 0.6 1015.9
2018-Mar-25 16:30S 36°05' E 019°11'0 0.0 1015.6
2018-Mar-25 15:30S 36°05' E 019°11'2 1.9 1015.0
2018-Mar-25 14:30S 36°07' E 019°10'0 0.0 1014.3
2018-Mar-25 13:30S 36°07' E 019°10'8 1.3 1013.8
2018-Mar-25 07:30S 36°15' E 019°08'0 0.0 1012.4
2018-Mar-25 03:30S 36°15' E 019°08'2 0.9 1010.9
2018-Mar-25 01:30S 36°17' E 019°08'2 0.9 1010.7
2018-Mar-24 23:30S 36°19' E 019°07'0 0.0 1011.7
2018-Mar-24 21:30S 36°19' E 019°07'1 1.3 1011.4
2018-Mar-24 20:30S 36°20' E 019°07'2 0.8 1011.4
2018-Mar-24 18:30S 36°21' E 019°05'1 0.4 1011.7
2018-Mar-24 16:30S 36°22' E 019°05'0 0.0 1010.7
2018-Mar-24 15:30S 36°22' E 019°05'2 2.4 1010.3
2018-Mar-24 14:30S 36°24' E 019°05'1 0.2 1010.0
2018-Mar-24 08:30S 36°25' E 019°05'1 0.1 1010.6
2018-Mar-24 04:30S 36°26' E 019°05'0 0.0 1009.8
2018-Mar-24 03:30S 36°26' E 019°05'4 1.2 1009.7
2018-Mar-24 00:30S 36°29' E 019°06'3 0.3 1009.2
2018-Mar-23 14:30S 36°32' E 019°04'1 0.6 1010.0
2018-Mar-23 12:30S 36°34' E 019°05'0 0.0 1010.6
2018-Mar-23 06:30S 36°34' E 019°05'0 0.0 1013.9
2018-Mar-23 05:30S 36°34' E 019°05'0 0.0 1014.5
2018-Mar-23 04:30S 36°34' E 019°05'1 0.2 1014.9
2018-Mar-23 01:30S 36°33' E 019°05'5 0.6 1017.1
2018-Mar-22 18:30S 36°31' E 019°10'0 0.0 1021.8
2018-Mar-22 17:30S 36°31' E 019°10'6 5.6 1021.6
2018-Mar-22 16:30S 36°32' E 019°16'0 0.1 1022.0
2018-Mar-22 08:30S 36°32' E 019°17'0 0.0 1026.5
2018-Mar-22 07:30S 36°32' E 019°17'2 1.6 1026.7
2018-Mar-22 06:30S 36°33' E 019°19'   1026.8

Dump ship's entire track history